EDDL/DUS METAR and TAF weather

Enter ICAO airport designator
Station Type Date Time Source
EDDL METAR 2021/10/22 18:20 UTC NOAA

EDDL 221820Z 28007KT 9999 FEW012 SCT046 09/07 Q1020 NOSIG


Station Type Date Time Source
EDDL Decoded METAR 2021/10/22 18:20 UTC NOAA

Duesseldorf, Germany (EDDL) 51-18N 006-46E 41M
Oct 22, 2021 - 02:20 PM EDT / 2021.10.22 1820 UTC
Wind: from the W (280 degrees) at 8 MPH (7 KT):0
Visibility: greater than 7 mile(s):0
Sky conditions: partly cloudy
Temperature: 48 F (9 C)
Dew Point: 44 F (7 C)
Relative Humidity: 87%
Pressure (altimeter): 30.12 in. Hg (1020 hPa)
ob: EDDL 221820Z 28007KT 9999 FEW012 SCT046 09/07 Q1020 NOSIG
cycle: 18

Station Type Date Time Source
EDDL TAF 2021/10/22 18:28 UTC NOAA

TAF EDDL 221700Z 2218/2324 24010KT 9999 SCT040
BECMG 2219/2222 23004KT PROB40
TEMPO 2304/2308 BKN009
BECMG 2316/2319 15007KT

Example: see airport list